sensor_id;sensor_type;location;lat;lon;timestamp;P1;durP1;ratioP1;P2;durP2;ratioP2
57241;SDS011;43095;53.302;5.786;2023-11-18T00:00:12;42.08;;;22.73;;
57241;SDS011;43095;53.302;5.786;2023-11-18T00:02:43;47.13;;;24.52;;
57241;SDS011;43095;53.302;5.786;2023-11-18T00:05:10;40.40;;;23.27;;
57241;SDS011;43095;53.302;5.786;2023-11-18T00:07:38;40.17;;;21.80;;
57241;SDS011;43095;53.302;5.786;2023-11-18T00:10:06;37.10;;;21.20;;
57241;SDS011;43095;53.302;5.786;2023-11-18T00:12:35;47.53;;;23.63;;
57241;SDS011;43095;53.302;5.786;2023-11-18T00:15:03;47.03;;;25.10;;
57241;SDS011;43095;53.302;5.786;2023-11-18T00:17:31;42.58;;;23.63;;
57241;SDS011;43095;53.302;5.786;2023-11-18T00:19:58;41.75;;;23.67;;
57241;SDS011;43095;53.302;5.786;2023-11-18T00:22:26;48.72;;;23.88;;
57241;SDS011;43095;53.302;5.786;2023-11-18T00:24:54;45.33;;;24.02;;
57241;SDS011;43095;53.302;5.786;2023-11-18T00:27:21;45.70;;;24.13;;
57241;SDS011;43095;53.302;5.786;2023-11-18T00:29:49;42.65;;;23.08;;
57241;SDS011;43095;53.302;5.786;2023-11-18T00:32:16;38.67;;;21.88;;
57241;SDS011;43095;53.302;5.786;2023-11-18T00:34:44;40.88;;;21.88;;
57241;SDS011;43095;53.302;5.786;2023-11-18T00:37:11;42.60;;;21.92;;
57241;SDS011;43095;53.302;5.786;2023-11-18T00:39:38;42.00;;;23.13;;
57241;SDS011;43095;53.302;5.786;2023-11-18T00:42:05;39.40;;;22.30;;
57241;SDS011;43095;53.302;5.786;2023-11-18T00:44:33;39.83;;;21.27;;
57241;SDS011;43095;53.302;5.786;2023-11-18T00:47:00;44.63;;;23.35;;
57241;SDS011;43095;53.302;5.786;2023-11-18T00:49:29;41.55;;;23.85;;
57241;SDS011;43095;53.302;5.786;2023-11-18T00:51:56;49.55;;;25.13;;
57241;SDS011;43095;53.302;5.786;2023-11-18T00:54:23;48.78;;;25.00;;
57241;SDS011;43095;53.302;5.786;2023-11-18T00:56:50;61.58;;;28.55;;
57241;SDS011;43095;53.302;5.786;2023-11-18T00:59:18;67.40;;;29.45;;
57241;SDS011;43095;53.302;5.786;2023-11-18T01:01:45;59.53;;;26.77;;
57241;SDS011;43095;53.302;5.786;2023-11-18T01:04:12;51.92;;;26.88;;
57241;SDS011;43095;53.302;5.786;2023-11-18T01:06:39;52.60;;;24.75;;
57241;SDS011;43095;53.302;5.786;2023-11-18T01:09:09;56.42;;;26.90;;
57241;SDS011;43095;53.302;5.786;2023-11-18T01:11:36;57.88;;;26.95;;
57241;SDS011;43095;53.302;5.786;2023-11-18T01:14:03;51.10;;;25.92;;
57241;SDS011;43095;53.302;5.786;2023-11-18T01:16:30;56.75;;;26.77;;
57241;SDS011;43095;53.302;5.786;2023-11-18T01:18:57;66.70;;;29.90;;
57241;SDS011;43095;53.302;5.786;2023-11-18T01:21:25;69.85;;;29.52;;
57241;SDS011;43095;53.302;5.786;2023-11-18T01:23:53;60.85;;;28.58;;
57241;SDS011;43095;53.302;5.786;2023-11-18T01:26:21;73.88;;;29.50;;
57241;SDS011;43095;53.302;5.786;2023-11-18T01:28:49;71.10;;;31.38;;
57241;SDS011;43095;53.302;5.786;2023-11-18T01:31:16;69.88;;;29.33;;
57241;SDS011;43095;53.302;5.786;2023-11-18T01:33:44;57.67;;;26.77;;
57241;SDS011;43095;53.302;5.786;2023-11-18T01:36:13;55.28;;;26.13;;
57241;SDS011;43095;53.302;5.786;2023-11-18T01:38:40;65.65;;;28.42;;
57241;SDS011;43095;53.302;5.786;2023-11-18T01:41:07;62.55;;;28.58;;
57241;SDS011;43095;53.302;5.786;2023-11-18T01:43:35;72.28;;;29.65;;
57241;SDS011;43095;53.302;5.786;2023-11-18T01:46:03;61.70;;;28.70;;
57241;SDS011;43095;53.302;5.786;2023-11-18T01:48:37;78.72;;;29.00;;
57241;SDS011;43095;53.302;5.786;2023-11-18T01:51:06;76.32;;;31.75;;
57241;SDS011;43095;53.302;5.786;2023-11-18T01:53:36;71.22;;;30.73;;
57241;SDS011;43095;53.302;5.786;2023-11-18T01:56:06;63.70;;;29.63;;
57241;SDS011;43095;53.302;5.786;2023-11-18T01:58:35;62.25;;;29.45;;
57241;SDS011;43095;53.302;5.786;2023-11-18T02:01:03;67.18;;;30.15;;
57241;SDS011;43095;53.302;5.786;2023-11-18T02:03:35;66.65;;;29.00;;
57241;SDS011;43095;53.302;5.786;2023-11-18T02:06:03;69.55;;;29.85;;
57241;SDS011;43095;53.302;5.786;2023-11-18T02:08:33;87.07;;;33.70;;
57241;SDS011;43095;53.302;5.786;2023-11-18T02:14:14;73.80;;;30.48;;
57241;SDS011;43095;53.302;5.786;2023-11-18T02:16:43;69.20;;;29.50;;
57241;SDS011;43095;53.302;5.786;2023-11-18T02:19:23;68.05;;;31.17;;
57241;SDS011;43095;53.302;5.786;2023-11-18T02:21:54;75.45;;;30.85;;
57241;SDS011;43095;53.302;5.786;2023-11-18T02:24:27;66.72;;;30.55;;
57241;SDS011;43095;53.302;5.786;2023-11-18T02:26:57;67.55;;;29.48;;
57241;SDS011;43095;53.302;5.786;2023-11-18T02:29:26;66.18;;;30.55;;
57241;SDS011;43095;53.302;5.786;2023-11-18T02:32:25;70.97;;;31.55;;
57241;SDS011;43095;53.302;5.786;2023-11-18T02:35:37;69.65;;;30.45;;
57241;SDS011;43095;53.302;5.786;2023-11-18T02:38:01;69.90;;;31.55;;
57241;SDS011;43095;53.302;5.786;2023-11-18T02:40:33;75.22;;;31.67;;
57241;SDS011;43095;53.302;5.786;2023-11-18T02:43:08;69.15;;;30.63;;
57241;SDS011;43095;53.302;5.786;2023-11-18T02:45:37;97.63;;;34.75;;
57241;SDS011;43095;53.302;5.786;2023-11-18T02:48:06;84.63;;;34.40;;
57241;SDS011;43095;53.302;5.786;2023-11-18T02:50:34;91.68;;;36.83;;
57241;SDS011;43095;53.302;5.786;2023-11-18T02:53:03;101.15;;;38.60;;
57241;SDS011;43095;53.302;5.786;2023-11-18T02:55:31;105.28;;;40.20;;
57241;SDS011;43095;53.302;5.786;2023-11-18T02:57:58;115.70;;;41.55;;
57241;SDS011;43095;53.302;5.786;2023-11-18T03:00:28;127.97;;;44.35;;
57241;SDS011;43095;53.302;5.786;2023-11-18T03:02:55;123.20;;;42.70;;
57241;SDS011;43095;53.302;5.786;2023-11-18T03:05:22;125.43;;;44.15;;
57241;SDS011;43095;53.302;5.786;2023-11-18T03:07:52;119.15;;;45.28;;
57241;SDS011;43095;53.302;5.786;2023-11-18T03:10:21;139.63;;;47.33;;
57241;SDS011;43095;53.302;5.786;2023-11-18T03:12:49;124.45;;;44.05;;
57241;SDS011;43095;53.302;5.786;2023-11-18T03:15:19;104.75;;;42.17;;
57241;SDS011;43095;53.302;5.786;2023-11-18T03:17:50;122.78;;;43.53;;
57241;SDS011;43095;53.302;5.786;2023-11-18T03:20:19;134.50;;;47.17;;
57241;SDS011;43095;53.302;5.786;2023-11-18T03:22:50;123.22;;;46.05;;
57241;SDS011;43095;53.302;5.786;2023-11-18T03:25:19;120.63;;;44.78;;
57241;SDS011;43095;53.302;5.786;2023-11-18T03:27:50;134.75;;;46.22;;
57241;SDS011;43095;53.302;5.786;2023-11-18T03:30:17;123.47;;;44.22;;
57241;SDS011;43095;53.302;5.786;2023-11-18T03:32:44;110.65;;;43.75;;
57241;SDS011;43095;53.302;5.786;2023-11-18T03:35:12;120.50;;;44.42;;
57241;SDS011;43095;53.302;5.786;2023-11-18T03:37:39;101.90;;;42.80;;
57241;SDS011;43095;53.302;5.786;2023-11-18T03:40:10;124.50;;;48.45;;
57241;SDS011;43095;53.302;5.786;2023-11-18T03:42:43;118.22;;;46.15;;
57241;SDS011;43095;53.302;5.786;2023-11-18T03:45:13;144.15;;;49.45;;
57241;SDS011;43095;53.302;5.786;2023-11-18T03:47:44;102.25;;;44.60;;
57241;SDS011;43095;53.302;5.786;2023-11-18T03:50:14;119.30;;;47.05;;
57241;SDS011;43095;53.302;5.786;2023-11-18T03:52:41;116.50;;;45.40;;
57241;SDS011;43095;53.302;5.786;2023-11-18T03:55:08;114.97;;;47.53;;
57241;SDS011;43095;53.302;5.786;2023-11-18T03:57:35;128.75;;;50.70;;
57241;SDS011;43095;53.302;5.786;2023-11-18T04:00:03;126.20;;;50.72;;
57241;SDS011;43095;53.302;5.786;2023-11-18T04:02:39;151.57;;;52.50;;
57241;SDS011;43095;53.302;5.786;2023-11-18T04:05:06;122.95;;;48.03;;
57241;SDS011;43095;53.302;5.786;2023-11-18T04:07:34;122.90;;;50.22;;
57241;SDS011;43095;53.302;5.786;2023-11-18T04:10:01;123.32;;;48.67;;
57241;SDS011;43095;53.302;5.786;2023-11-18T04:12:33;108.97;;;46.25;;
57241;SDS011;43095;53.302;5.786;2023-11-18T04:15:00;117.05;;;49.08;;
57241;SDS011;43095;53.302;5.786;2023-11-18T04:17:31;106.88;;;45.03;;
57241;SDS011;43095;53.302;5.786;2023-11-18T04:19:58;124.10;;;49.03;;
57241;SDS011;43095;53.302;5.786;2023-11-18T04:22:26;114.03;;;48.10;;
57241;SDS011;43095;53.302;5.786;2023-11-18T04:24:53;114.30;;;47.22;;
57241;SDS011;43095;53.302;5.786;2023-11-18T04:27:22;118.03;;;48.72;;
57241;SDS011;43095;53.302;5.786;2023-11-18T04:29:49;110.72;;;48.40;;
57241;SDS011;43095;53.302;5.786;2023-11-18T04:32:17;107.18;;;47.42;;
57241;SDS011;43095;53.302;5.786;2023-11-18T04:34:44;102.32;;;48.13;;
57241;SDS011;43095;53.302;5.786;2023-11-18T04:37:11;112.20;;;52.17;;
57241;SDS011;43095;53.302;5.786;2023-11-18T04:39:38;113.32;;;51.15;;
57241;SDS011;43095;53.302;5.786;2023-11-18T04:42:06;117.35;;;51.13;;
57241;SDS011;43095;53.302;5.786;2023-11-18T04:44:33;119.28;;;49.28;;
57241;SDS011;43095;53.302;5.786;2023-11-18T04:47:01;109.18;;;43.72;;
57241;SDS011;43095;53.302;5.786;2023-11-18T04:49:28;94.45;;;39.42;;
57241;SDS011;43095;53.302;5.786;2023-11-18T04:51:56;102.43;;;39.42;;
57241;SDS011;43095;53.302;5.786;2023-11-18T04:54:25;97.43;;;39.03;;
57241;SDS011;43095;53.302;5.786;2023-11-18T04:56:52;129.75;;;42.15;;
57241;SDS011;43095;53.302;5.786;2023-11-18T04:59:19;97.60;;;40.72;;
57241;SDS011;43095;53.302;5.786;2023-11-18T05:01:47;91.68;;;38.95;;
57241;SDS011;43095;53.302;5.786;2023-11-18T05:04:14;104.05;;;38.72;;
57241;SDS011;43095;53.302;5.786;2023-11-18T05:06:42;143.13;;;43.20;;
57241;SDS011;43095;53.302;5.786;2023-11-18T05:09:09;221.27;;;46.90;;
57241;SDS011;43095;53.302;5.786;2023-11-18T05:11:36;116.80;;;42.38;;
57241;SDS011;43095;53.302;5.786;2023-11-18T05:14:03;115.82;;;40.42;;
57241;SDS011;43095;53.302;5.786;2023-11-18T05:16:31;95.60;;;38.17;;
57241;SDS011;43095;53.302;5.786;2023-11-18T05:18:58;101.18;;;40.17;;
57241;SDS011;43095;53.302;5.786;2023-11-18T05:21:25;95.85;;;38.00;;
57241;SDS011;43095;53.302;5.786;2023-11-18T05:23:54;103.45;;;38.40;;
57241;SDS011;43095;53.302;5.786;2023-11-18T05:26:22;130.05;;;42.25;;
57241;SDS011;43095;53.302;5.786;2023-11-18T05:28:49;164.30;;;45.50;;
57241;SDS011;43095;53.302;5.786;2023-11-18T05:31:16;109.65;;;43.03;;
57241;SDS011;43095;53.302;5.786;2023-11-18T05:33:44;131.45;;;42.78;;
57241;SDS011;43095;53.302;5.786;2023-11-18T05:36:18;119.13;;;43.10;;
57241;SDS011;43095;53.302;5.786;2023-11-18T05:38:53;125.15;;;40.55;;
57241;SDS011;43095;53.302;5.786;2023-11-18T05:41:21;126.63;;;44.22;;
57241;SDS011;43095;53.302;5.786;2023-11-18T05:43:54;109.20;;;39.25;;
57241;SDS011;43095;53.302;5.786;2023-11-18T05:46:24;100.25;;;39.38;;
57241;SDS011;43095;53.302;5.786;2023-11-18T05:48:56;130.17;;;44.03;;
57241;SDS011;43095;53.302;5.786;2023-11-18T05:51:24;95.50;;;38.53;;
57241;SDS011;43095;53.302;5.786;2023-11-18T05:53:53;123.03;;;42.38;;
57241;SDS011;43095;53.302;5.786;2023-11-18T05:56:20;124.32;;;44.38;;
57241;SDS011;43095;53.302;5.786;2023-11-18T05:58:52;114.65;;;41.97;;
57241;SDS011;43095;53.302;5.786;2023-11-18T06:01:22;129.35;;;42.97;;
57241;SDS011;43095;53.302;5.786;2023-11-18T06:03:54;131.23;;;42.35;;
57241;SDS011;43095;53.302;5.786;2023-11-18T06:06:26;130.18;;;43.10;;
57241;SDS011;43095;53.302;5.786;2023-11-18T06:08:53;99.28;;;40.17;;
57241;SDS011;43095;53.302;5.786;2023-11-18T06:11:21;143.27;;;46.08;;
57241;SDS011;43095;53.302;5.786;2023-11-18T06:13:50;118.20;;;41.55;;
57241;SDS011;43095;53.302;5.786;2023-11-18T06:16:22;123.82;;;42.17;;
57241;SDS011;43095;53.302;5.786;2023-11-18T06:18:54;88.00;;;38.92;;
57241;SDS011;43095;53.302;5.786;2023-11-18T06:23:58;105.35;;;40.17;;
57241;SDS011;43095;53.302;5.786;2023-11-18T06:26:26;135.13;;;43.55;;
57241;SDS011;43095;53.302;5.786;2023-11-18T06:28:54;125.18;;;43.63;;
57241;SDS011;43095;53.302;5.786;2023-11-18T06:31:22;125.60;;;42.58;;
57241;SDS011;43095;53.302;5.786;2023-11-18T06:33:50;114.68;;;43.47;;
57241;SDS011;43095;53.302;5.786;2023-11-18T06:36:19;101.20;;;40.47;;
57241;SDS011;43095;53.302;5.786;2023-11-18T06:38:48;126.53;;;44.53;;
57241;SDS011;43095;53.302;5.786;2023-11-18T06:41:21;133.68;;;44.92;;
57241;SDS011;43095;53.302;5.786;2023-11-18T06:44:15;131.45;;;44.03;;
57241;SDS011;43095;53.302;5.786;2023-11-18T06:46:50;100.70;;;41.65;;
57241;SDS011;43095;53.302;5.786;2023-11-18T06:49:17;131.18;;;46.85;;
57241;SDS011;43095;53.302;5.786;2023-11-18T06:51:46;155.80;;;47.47;;
57241;SDS011;43095;53.302;5.786;2023-11-18T06:54:13;134.35;;;44.45;;
57241;SDS011;43095;53.302;5.786;2023-11-18T06:56:40;101.30;;;41.13;;
57241;SDS011;43095;53.302;5.786;2023-11-18T06:59:10;119.30;;;43.78;;
57241;SDS011;43095;53.302;5.786;2023-11-18T07:01:40;108.00;;;41.80;;
57241;SDS011;43095;53.302;5.786;2023-11-18T07:04:11;109.07;;;41.88;;
57241;SDS011;43095;53.302;5.786;2023-11-18T07:06:38;118.53;;;44.28;;
57241;SDS011;43095;53.302;5.786;2023-11-18T07:09:06;110.95;;;42.60;;
57241;SDS011;43095;53.302;5.786;2023-11-18T07:11:44;113.63;;;43.70;;
57241;SDS011;43095;53.302;5.786;2023-11-18T07:14:13;120.47;;;45.25;;
57241;SDS011;43095;53.302;5.786;2023-11-18T07:16:41;106.15;;;42.42;;
57241;SDS011;43095;53.302;5.786;2023-11-18T07:19:10;105.30;;;43.70;;
57241;SDS011;43095;53.302;5.786;2023-11-18T07:21:44;111.38;;;43.72;;
57241;SDS011;43095;53.302;5.786;2023-11-18T07:24:11;104.75;;;42.13;;
57241;SDS011;43095;53.302;5.786;2023-11-18T07:26:38;91.13;;;40.20;;
57241;SDS011;43095;53.302;5.786;2023-11-18T07:29:06;110.05;;;44.05;;
57241;SDS011;43095;53.302;5.786;2023-11-18T07:31:36;100.55;;;41.80;;
57241;SDS011;43095;53.302;5.786;2023-11-18T07:34:03;106.43;;;44.20;;
57241;SDS011;43095;53.302;5.786;2023-11-18T07:36:32;110.78;;;43.42;;
57241;SDS011;43095;53.302;5.786;2023-11-18T07:39:00;99.90;;;41.33;;
57241;SDS011;43095;53.302;5.786;2023-11-18T07:41:30;109.60;;;43.72;;
57241;SDS011;43095;53.302;5.786;2023-11-18T07:43:59;96.53;;;40.75;;
57241;SDS011;43095;53.302;5.786;2023-11-18T07:46:27;124.75;;;45.10;;
57241;SDS011;43095;53.302;5.786;2023-11-18T07:48:57;104.45;;;43.53;;
57241;SDS011;43095;53.302;5.786;2023-11-18T07:51:25;108.45;;;41.67;;
57241;SDS011;43095;53.302;5.786;2023-11-18T07:53:52;113.32;;;43.20;;
57241;SDS011;43095;53.302;5.786;2023-11-18T07:56:19;114.72;;;43.22;;
57241;SDS011;43095;53.302;5.786;2023-11-18T07:58:49;102.15;;;41.05;;
57241;SDS011;43095;53.302;5.786;2023-11-18T08:01:18;98.20;;;40.72;;
57241;SDS011;43095;53.302;5.786;2023-11-18T08:03:48;109.70;;;43.08;;
57241;SDS011;43095;53.302;5.786;2023-11-18T08:06:17;96.88;;;38.95;;
57241;SDS011;43095;53.302;5.786;2023-11-18T08:08:44;98.55;;;39.72;;
57241;SDS011;43095;53.302;5.786;2023-11-18T08:11:14;91.47;;;37.47;;
57241;SDS011;43095;53.302;5.786;2023-11-18T08:13:41;89.95;;;38.13;;
57241;SDS011;43095;53.302;5.786;2023-11-18T08:16:10;104.85;;;38.97;;
57241;SDS011;43095;53.302;5.786;2023-11-18T08:18:39;94.75;;;37.75;;
57241;SDS011;43095;53.302;5.786;2023-11-18T08:21:06;94.07;;;35.85;;
57241;SDS011;43095;53.302;5.786;2023-11-18T08:23:33;85.68;;;34.30;;
57241;SDS011;43095;53.302;5.786;2023-11-18T08:26:02;101.93;;;39.25;;
57241;SDS011;43095;53.302;5.786;2023-11-18T08:28:32;86.95;;;36.80;;
57241;SDS011;43095;53.302;5.786;2023-11-18T08:30:59;82.20;;;34.72;;
57241;SDS011;43095;53.302;5.786;2023-11-18T08:33:27;94.80;;;35.88;;
57241;SDS011;43095;53.302;5.786;2023-11-18T08:35:55;102.65;;;38.42;;
57241;SDS011;43095;53.302;5.786;2023-11-18T08:38:23;84.03;;;35.08;;
57241;SDS011;43095;53.302;5.786;2023-11-18T08:40:51;93.85;;;33.95;;
57241;SDS011;43095;53.302;5.786;2023-11-18T08:43:18;97.53;;;37.47;;
57241;SDS011;43095;53.302;5.786;2023-11-18T08:45:47;86.32;;;34.78;;
57241;SDS011;43095;53.302;5.786;2023-11-18T08:48:16;94.97;;;35.20;;
57241;SDS011;43095;53.302;5.786;2023-11-18T08:50:45;89.72;;;36.35;;
57241;SDS011;43095;53.302;5.786;2023-11-18T08:53:13;90.80;;;35.50;;
57241;SDS011;43095;53.302;5.786;2023-11-18T08:55:44;106.43;;;36.72;;
57241;SDS011;43095;53.302;5.786;2023-11-18T08:58:18;99.78;;;37.05;;
57241;SDS011;43095;53.302;5.786;2023-11-18T09:00:46;99.03;;;37.58;;
57241;SDS011;43095;53.302;5.786;2023-11-18T09:03:25;93.45;;;36.13;;
57241;SDS011;43095;53.302;5.786;2023-11-18T09:06:02;93.13;;;34.53;;
57241;SDS011;43095;53.302;5.786;2023-11-18T09:08:33;96.07;;;35.72;;
57241;SDS011;43095;53.302;5.786;2023-11-18T09:11:06;89.50;;;35.90;;
57241;SDS011;43095;53.302;5.786;2023-11-18T09:13:37;91.20;;;37.93;;
57241;SDS011;43095;53.302;5.786;2023-11-18T09:16:05;87.22;;;35.45;;
57241;SDS011;43095;53.302;5.786;2023-11-18T09:18:40;83.82;;;35.42;;
57241;SDS011;43095;53.302;5.786;2023-11-18T09:21:11;85.05;;;34.90;;
57241;SDS011;43095;53.302;5.786;2023-11-18T09:23:45;85.78;;;34.53;;
57241;SDS011;43095;53.302;5.786;2023-11-18T09:26:14;81.97;;;34.83;;
57241;SDS011;43095;53.302;5.786;2023-11-18T09:28:43;79.82;;;34.38;;
57241;SDS011;43095;53.302;5.786;2023-11-18T09:31:11;79.47;;;33.72;;
57241;SDS011;43095;53.302;5.786;2023-11-18T09:33:39;90.25;;;33.55;;
57241;SDS011;43095;53.302;5.786;2023-11-18T09:36:13;81.28;;;34.10;;
57241;SDS011;43095;53.302;5.786;2023-11-18T09:38:41;82.30;;;34.53;;
57241;SDS011;43095;53.302;5.786;2023-11-18T09:41:09;84.10;;;35.60;;
57241;SDS011;43095;53.302;5.786;2023-11-18T09:43:38;75.82;;;34.17;;
57241;SDS011;43095;53.302;5.786;2023-11-18T09:46:12;82.78;;;34.80;;
57241;SDS011;43095;53.302;5.786;2023-11-18T09:48:44;74.88;;;32.40;;
57241;SDS011;43095;53.302;5.786;2023-11-18T09:51:26;72.82;;;33.92;;
57241;SDS011;43095;53.302;5.786;2023-11-18T09:54:00;71.25;;;33.20;;
57241;SDS011;43095;53.302;5.786;2023-11-18T09:56:41;76.30;;;33.53;;
57241;SDS011;43095;53.302;5.786;2023-11-18T09:59:42;86.38;;;36.08;;
57241;SDS011;43095;53.302;5.786;2023-11-18T10:02:13;75.60;;;32.08;;
57241;SDS011;43095;53.302;5.786;2023-11-18T10:04:40;76.32;;;33.10;;
57241;SDS011;43095;53.302;5.786;2023-11-18T10:07:08;76.03;;;32.70;;
57241;SDS011;43095;53.302;5.786;2023-11-18T10:09:37;87.47;;;35.20;;
57241;SDS011;43095;53.302;5.786;2023-11-18T10:12:08;77.47;;;33.35;;
57241;SDS011;43095;53.302;5.786;2023-11-18T10:14:41;84.50;;;32.97;;
57241;SDS011;43095;53.302;5.786;2023-11-18T10:17:10;70.32;;;32.42;;
57241;SDS011;43095;53.302;5.786;2023-11-18T10:19:57;81.95;;;34.50;;
57241;SDS011;43095;53.302;5.786;2023-11-18T10:22:39;86.50;;;36.10;;
57241;SDS011;43095;53.302;5.786;2023-11-18T10:25:07;74.70;;;33.33;;
57241;SDS011;43095;53.302;5.786;2023-11-18T10:27:34;88.43;;;35.83;;
57241;SDS011;43095;53.302;5.786;2023-11-18T10:30:02;78.32;;;33.95;;
57241;SDS011;43095;53.302;5.786;2023-11-18T10:32:31;85.05;;;33.72;;
57241;SDS011;43095;53.302;5.786;2023-11-18T10:35:06;85.55;;;35.22;;
57241;SDS011;43095;53.302;5.786;2023-11-18T10:37:37;74.88;;;35.00;;
57241;SDS011;43095;53.302;5.786;2023-11-18T10:40:10;78.80;;;34.08;;
57241;SDS011;43095;53.302;5.786;2023-11-18T10:42:41;82.68;;;34.70;;
57241;SDS011;43095;53.302;5.786;2023-11-18T10:45:13;77.28;;;33.10;;
57241;SDS011;43095;53.302;5.786;2023-11-18T10:47:54;75.50;;;33.38;;
57241;SDS011;43095;53.302;5.786;2023-11-18T10:50:24;73.90;;;33.60;;
57241;SDS011;43095;53.302;5.786;2023-11-18T10:53:01;72.88;;;34.17;;
57241;SDS011;43095;53.302;5.786;2023-11-18T10:55:35;85.57;;;36.95;;
57241;SDS011;43095;53.302;5.786;2023-11-18T10:58:06;83.85;;;35.58;;
57241;SDS011;43095;53.302;5.786;2023-11-18T11:00:49;80.93;;;34.53;;
57241;SDS011;43095;53.302;5.786;2023-11-18T11:03:19;74.18;;;32.78;;
57241;SDS011;43095;53.302;5.786;2023-11-18T11:05:50;82.00;;;34.17;;
57241;SDS011;43095;53.302;5.786;2023-11-18T11:08:20;78.40;;;35.85;;
57241;SDS011;43095;53.302;5.786;2023-11-18T11:11:01;77.93;;;34.03;;
57241;SDS011;43095;53.302;5.786;2023-11-18T11:13:34;78.20;;;34.28;;
57241;SDS011;43095;53.302;5.786;2023-11-18T11:16:04;77.57;;;36.28;;
57241;SDS011;43095;53.302;5.786;2023-11-18T11:18:36;79.18;;;36.22;;
57241;SDS011;43095;53.302;5.786;2023-11-18T11:21:13;80.97;;;36.33;;
57241;SDS011;43095;53.302;5.786;2023-11-18T11:23:50;76.40;;;32.97;;
57241;SDS011;43095;53.302;5.786;2023-11-18T11:35:19;74.03;;;33.45;;
57241;SDS011;43095;53.302;5.786;2023-11-18T11:38:00;78.32;;;34.13;;
57241;SDS011;43095;53.302;5.786;2023-11-18T11:40:36;74.53;;;33.05;;
57241;SDS011;43095;53.302;5.786;2023-11-18T11:43:06;81.03;;;35.30;;
57241;SDS011;43095;53.302;5.786;2023-11-18T11:45:37;82.32;;;33.90;;
57241;SDS011;43095;53.302;5.786;2023-11-18T11:48:06;74.68;;;32.22;;
57241;SDS011;43095;53.302;5.786;2023-11-18T11:53:55;77.03;;;32.35;;
57241;SDS011;43095;53.302;5.786;2023-11-18T11:56:42;75.75;;;31.35;;
57241;SDS011;43095;53.302;5.786;2023-11-18T11:59:10;74.60;;;33.35;;
57241;SDS011;43095;53.302;5.786;2023-11-18T12:01:38;69.63;;;31.75;;
57241;SDS011;43095;53.302;5.786;2023-11-18T12:04:16;80.85;;;31.08;;
57241;SDS011;43095;53.302;5.786;2023-11-18T12:06:55;67.35;;;30.33;;
57241;SDS011;43095;53.302;5.786;2023-11-18T12:09:35;82.28;;;31.38;;
57241;SDS011;43095;53.302;5.786;2023-11-18T12:12:06;77.20;;;31.85;;
57241;SDS011;43095;53.302;5.786;2023-11-18T12:14:49;72.13;;;30.52;;
57241;SDS011;43095;53.302;5.786;2023-11-18T12:23:22;72.30;;;29.73;;
57241;SDS011;43095;53.302;5.786;2023-11-18T12:25:52;76.13;;;31.38;;
57241;SDS011;43095;53.302;5.786;2023-11-18T12:28:28;78.00;;;31.63;;
57241;SDS011;43095;53.302;5.786;2023-11-18T12:31:12;74.68;;;31.08;;
57241;SDS011;43095;53.302;5.786;2023-11-18T12:34:08;79.65;;;31.42;;
57241;SDS011;43095;53.302;5.786;2023-11-18T12:36:41;77.95;;;32.80;;
57241;SDS011;43095;53.302;5.786;2023-11-18T12:42:57;78.28;;;33.00;;
57241;SDS011;43095;53.302;5.786;2023-11-18T12:48:14;87.10;;;35.25;;
57241;SDS011;43095;53.302;5.786;2023-11-18T12:50:41;81.38;;;34.03;;
57241;SDS011;43095;53.302;5.786;2023-11-18T12:53:12;70.90;;;31.17;;
57241;SDS011;43095;53.302;5.786;2023-11-18T12:55:41;87.30;;;34.88;;
57241;SDS011;43095;53.302;5.786;2023-11-18T12:58:09;70.88;;;31.77;;
57241;SDS011;43095;53.302;5.786;2023-11-18T13:00:39;73.35;;;33.47;;
57241;SDS011;43095;53.302;5.786;2023-11-18T13:03:09;69.63;;;33.53;;
57241;SDS011;43095;53.302;5.786;2023-11-18T13:05:37;74.28;;;30.70;;
57241;SDS011;43095;53.302;5.786;2023-11-18T13:08:04;73.05;;;31.73;;
57241;SDS011;43095;53.302;5.786;2023-11-18T13:10:32;67.38;;;30.08;;
57241;SDS011;43095;53.302;5.786;2023-11-18T13:12:59;64.90;;;30.27;;
57241;SDS011;43095;53.302;5.786;2023-11-18T13:15:27;62.72;;;27.67;;
57241;SDS011;43095;53.302;5.786;2023-11-18T13:18:01;58.33;;;27.67;;
57241;SDS011;43095;53.302;5.786;2023-11-18T13:20:33;56.25;;;26.38;;
57241;SDS011;43095;53.302;5.786;2023-11-18T13:23:04;58.80;;;25.60;;
57241;SDS011;43095;53.302;5.786;2023-11-18T13:25:36;57.20;;;25.65;;
57241;SDS011;43095;53.302;5.786;2023-11-18T13:28:07;49.63;;;23.77;;
57241;SDS011;43095;53.302;5.786;2023-11-18T13:30:36;45.95;;;21.98;;
57241;SDS011;43095;53.302;5.786;2023-11-18T13:33:06;46.10;;;22.13;;
57241;SDS011;43095;53.302;5.786;2023-11-18T13:35:35;47.45;;;21.63;;
57241;SDS011;43095;53.302;5.786;2023-11-18T13:38:03;42.15;;;20.80;;
57241;SDS011;43095;53.302;5.786;2023-11-18T13:40:45;41.03;;;20.88;;
57241;SDS011;43095;53.302;5.786;2023-11-18T13:43:14;37.45;;;19.55;;
57241;SDS011;43095;53.302;5.786;2023-11-18T13:45:41;44.45;;;21.02;;
57241;SDS011;43095;53.302;5.786;2023-11-18T13:48:11;36.28;;;18.00;;
57241;SDS011;43095;53.302;5.786;2023-11-18T13:50:40;36.30;;;18.52;;
57241;SDS011;43095;53.302;5.786;2023-11-18T13:53:09;39.15;;;18.67;;
57241;SDS011;43095;53.302;5.786;2023-11-18T13:55:37;40.53;;;19.10;;
57241;SDS011;43095;53.302;5.786;2023-11-18T13:58:05;32.05;;;18.02;;
57241;SDS011;43095;53.302;5.786;2023-11-18T14:00:33;32.67;;;18.83;;
57241;SDS011;43095;53.302;5.786;2023-11-18T14:03:00;37.63;;;18.02;;
57241;SDS011;43095;53.302;5.786;2023-11-18T14:05:29;33.85;;;19.08;;
57241;SDS011;43095;53.302;5.786;2023-11-18T14:08:00;35.38;;;18.67;;
57241;SDS011;43095;53.302;5.786;2023-11-18T14:10:36;35.90;;;18.67;;
57241;SDS011;43095;53.302;5.786;2023-11-18T14:13:07;32.10;;;18.10;;
57241;SDS011;43095;53.302;5.786;2023-11-18T14:15:39;33.13;;;18.40;;
57241;SDS011;43095;53.302;5.786;2023-11-18T14:18:09;35.72;;;17.77;;
57241;SDS011;43095;53.302;5.786;2023-11-18T14:20:37;38.25;;;18.65;;
57241;SDS011;43095;53.302;5.786;2023-11-18T14:23:04;26.05;;;15.90;;
57241;SDS011;43095;53.302;5.786;2023-11-18T14:25:32;29.27;;;16.38;;
57241;SDS011;43095;53.302;5.786;2023-11-18T14:28:01;33.47;;;17.73;;
57241;SDS011;43095;53.302;5.786;2023-11-18T14:30:29;29.35;;;17.23;;
57241;SDS011;43095;53.302;5.786;2023-11-18T14:32:56;30.58;;;16.60;;
57241;SDS011;43095;53.302;5.786;2023-11-18T14:35:24;31.40;;;16.83;;
57241;SDS011;43095;53.302;5.786;2023-11-18T14:37:55;26.83;;;16.70;;
57241;SDS011;43095;53.302;5.786;2023-11-18T14:40:23;31.80;;;18.05;;
57241;SDS011;43095;53.302;5.786;2023-11-18T14:42:50;32.90;;;17.70;;
57241;SDS011;43095;53.302;5.786;2023-11-18T14:45:18;29.35;;;16.67;;
57241;SDS011;43095;53.302;5.786;2023-11-18T14:47:46;31.08;;;17.27;;
57241;SDS011;43095;53.302;5.786;2023-11-18T14:50:20;30.83;;;17.73;;
57241;SDS011;43095;53.302;5.786;2023-11-18T14:52:48;32.50;;;17.92;;
57241;SDS011;43095;53.302;5.786;2023-11-18T14:55:28;33.10;;;17.70;;
57241;SDS011;43095;53.302;5.786;2023-11-18T14:57:56;32.17;;;18.30;;
57241;SDS011;43095;53.302;5.786;2023-11-18T15:00:24;31.17;;;17.65;;
57241;SDS011;43095;53.302;5.786;2023-11-18T15:02:54;32.97;;;17.00;;
57241;SDS011;43095;53.302;5.786;2023-11-18T15:05:25;25.15;;;16.38;;